createdAt,value
2022-10-03T00:01:16.033Z,8.60
2022-10-03T00:04:01.213Z,8.69
2022-10-03T00:06:34.325Z,8.67
2022-10-03T00:09:04.397Z,8.62
2022-10-03T00:11:31.852Z,8.69
2022-10-03T00:14:22.133Z,8.60
2022-10-03T00:16:56.712Z,8.61
2022-10-03T00:19:48.384Z,8.69
2022-10-03T00:22:34.415Z,8.41
2022-10-03T00:25:20.381Z,8.44
2022-10-03T00:27:53.462Z,8.56
2022-10-03T00:30:23.069Z,8.64
2022-10-03T00:33:03.546Z,8.65
2022-10-03T00:35:31.854Z,8.68
2022-10-03T00:38:22.267Z,8.51
2022-10-03T00:41:14.684Z,8.60
2022-10-03T00:43:56.973Z,8.61
2022-10-03T00:46:32.949Z,8.44
2022-10-03T00:49:18.654Z,8.43
2022-10-03T00:52:04.308Z,8.50
2022-10-03T00:54:43.411Z,8.44
2022-10-03T00:57:14.571Z,8.33
2022-10-03T00:59:56.883Z,8.48
2022-10-03T01:02:30.100Z,8.55
2022-10-03T01:05:07.886Z,8.45
2022-10-03T01:07:53.188Z,8.41
2022-10-03T01:10:28.314Z,8.37
2022-10-03T01:12:58.407Z,8.51
2022-10-03T01:15:31.510Z,8.56
2022-10-03T01:18:10.572Z,8.48
2022-10-03T01:20:37.794Z,8.47
2022-10-03T01:23:23.461Z,8.42
2022-10-03T01:25:50.644Z,8.46
2022-10-03T01:28:42.184Z,8.51
2022-10-03T01:31:11.253Z,8.63
2022-10-03T01:33:42.325Z,8.65
2022-10-03T01:36:21.156Z,8.69
2022-10-03T01:38:53.845Z,8.67
2022-10-03T01:41:28.037Z,8.69
2022-10-03T01:44:00.883Z,8.64
2022-10-03T01:46:45.520Z,8.67
2022-10-03T01:49:28.392Z,8.55
2022-10-03T01:52:00.749Z,8.56
2022-10-03T01:54:54.138Z,8.61
2022-10-03T01:57:35.414Z,8.68
2022-10-03T02:00:09.655Z,8.79
2022-10-03T02:02:50.365Z,8.88
2022-10-03T02:05:23.043Z,8.84
2022-10-03T02:08:04.222Z,8.62
2022-10-03T02:10:41.580Z,8.72
2022-10-03T02:13:31.156Z,8.75
2022-10-03T02:15:58.434Z,8.73
2022-10-03T02:18:49.129Z,8.64
2022-10-03T02:21:21.273Z,8.63
2022-10-03T02:23:49.843Z,8.72
2022-10-03T02:26:26.273Z,8.79
2022-10-03T02:28:55.496Z,8.87
2022-10-03T02:31:28.519Z,8.84
2022-10-03T02:34:01.858Z,8.76
2022-10-03T02:36:37.848Z,8.85
2022-10-03T02:39:23.904Z,8.88
2022-10-03T02:42:18.506Z,8.95
2022-10-03T02:44:51.503Z,8.90
2022-10-03T02:47:36.446Z,8.84
2022-10-03T02:50:22.733Z,8.82
2022-10-03T02:52:49.632Z,8.95
2022-10-03T02:55:36.387Z,8.95
2022-10-03T02:58:06.384Z,9.00
2022-10-03T03:00:53.608Z,8.97
2022-10-03T03:03:29.703Z,8.93
2022-10-03T03:06:13.335Z,8.96
2022-10-03T03:09:15.795Z,8.97
2022-10-03T03:12:05.820Z,8.95
2022-10-03T03:14:51.433Z,9.00
2022-10-03T03:17:18.827Z,8.95
2022-10-03T03:20:02.703Z,9.05
2022-10-03T03:22:33.110Z,8.97
2022-10-03T03:25:06.092Z,8.98
2022-10-03T03:27:52.151Z,8.89
2022-10-03T03:30:21.388Z,8.82
2022-10-03T03:33:08.827Z,8.89
2022-10-03T03:35:54.695Z,8.73
2022-10-03T03:38:21.941Z,8.79
2022-10-03T03:40:52.192Z,8.69
2022-10-03T03:43:29.036Z,8.85
2022-10-03T03:46:21.516Z,8.92
2022-10-03T03:49:09.565Z,8.97
2022-10-03T03:51:55.285Z,8.90
2022-10-03T03:54:50.818Z,8.98
2022-10-03T03:57:18.056Z,9.04
2022-10-03T03:59:53.869Z,9.00
2022-10-03T04:02:53.560Z,8.93
2022-10-03T04:05:20.471Z,9.00
2022-10-03T04:07:53.801Z,9.04
2022-10-03T04:10:23.756Z,9.04
2022-10-03T04:13:03.535Z,9.08
2022-10-03T04:15:49.441Z,9.07
2022-10-03T04:18:34.931Z,9.12
2022-10-03T04:21:16.868Z,9.10
2022-10-03T04:23:46.318Z,9.07
2022-10-03T04:26:30.333Z,9.03
2022-10-03T04:29:06.781Z,9.08
2022-10-03T04:31:52.342Z,9.02
2022-10-03T04:34:26.818Z,9.01
2022-10-03T04:36:53.998Z,8.93
2022-10-03T04:39:42.668Z,8.97
2022-10-03T04:42:32.003Z,9.03
2022-10-03T04:44:59.135Z,8.92
2022-10-03T04:47:33.779Z,8.78
2022-10-03T04:50:22.984Z,8.94
2022-10-03T04:53:08.262Z,9.01
2022-10-03T04:55:35.609Z,8.98
2022-10-03T04:58:07.958Z,9.02
2022-10-03T05:00:48.305Z,9.05
2022-10-03T05:03:15.796Z,9.15
2022-10-03T05:05:58.793Z,9.15
2022-10-03T05:08:40.483Z,8.96
2022-10-03T05:11:19.580Z,9.01
2022-10-03T05:13:53.803Z,8.99
2022-10-03T05:16:22.094Z,8.98
2022-10-03T05:18:52.287Z,8.97
2022-10-03T05:21:28.405Z,8.94
2022-10-03T05:24:11.284Z,8.92
2022-10-03T05:26:45.382Z,9.02
2022-10-03T05:29:15.773Z,9.08
2022-10-03T05:31:44.608Z,8.92
2022-10-03T05:34:50.262Z,8.95
2022-10-03T05:37:29.726Z,8.82
2022-10-03T05:40:19.828Z,8.95
2022-10-03T05:42:51.235Z,9.09
2022-10-03T05:45:36.997Z,9.07
2022-10-03T05:48:07.407Z,9.17
2022-10-03T05:50:41.712Z,9.21
2022-10-03T05:53:17.995Z,9.23
2022-10-03T05:55:44.888Z,9.23
2022-10-03T05:58:24.226Z,9.15
2022-10-03T06:01:11.335Z,9.15
2022-10-03T06:03:44.470Z,8.98
2022-10-03T06:06:24.825Z,9.16
2022-10-03T06:09:18.302Z,9.33
2022-10-03T06:11:54.116Z,9.38
2022-10-03T06:14:50.055Z,9.48
2022-10-03T06:17:29.238Z,9.57
2022-10-03T06:20:15.117Z,9.67
2022-10-03T06:23:05.596Z,9.71
2022-10-03T06:25:35.933Z,9.71
2022-10-03T06:28:02.851Z,9.85
2022-10-03T06:30:32.531Z,9.93
2022-10-03T06:33:16.181Z,10.10
2022-10-03T06:35:52.602Z,10.02
2022-10-03T06:38:36.526Z,9.98
2022-10-03T06:41:12.426Z,10.16
2022-10-03T06:43:48.517Z,10.24
2022-10-03T06:46:26.171Z,10.43
2022-10-03T06:49:02.356Z,10.38
2022-10-03T06:51:32.357Z,10.33
2022-10-03T06:54:02.529Z,10.46
2022-10-03T06:56:49.724Z,10.58
2022-10-03T06:59:20.300Z,10.54
2022-10-03T07:02:14.214Z,10.68
2022-10-03T07:04:50.341Z,10.80
2022-10-03T07:07:17.441Z,10.63
2022-10-03T07:09:54.442Z,11.03
2022-10-03T07:12:39.438Z,11.21
2022-10-03T07:15:50.841Z,11.34
2022-10-03T07:18:33.541Z,11.59
2022-10-03T07:21:31.976Z,11.58
2022-10-03T07:24:11.275Z,11.78
2022-10-03T07:26:54.077Z,11.50
2022-10-03T07:29:27.177Z,11.38
2022-10-03T07:32:03.211Z,11.42
2022-10-03T07:34:48.837Z,11.37
2022-10-03T07:37:46.943Z,11.59
2022-10-03T07:40:32.416Z,11.71
2022-10-03T07:43:20.273Z,11.78
2022-10-03T07:46:07.441Z,11.76
2022-10-03T07:49:00.916Z,11.91
2022-10-03T07:51:45.969Z,12.01
2022-10-03T07:54:19.529Z,11.88
2022-10-03T07:57:05.001Z,11.95
2022-10-03T07:59:52.502Z,12.47
2022-10-03T08:02:45.941Z,12.73
2022-10-03T08:05:37.627Z,13.11
2022-10-03T08:08:23.393Z,13.40
2022-10-03T08:11:14.991Z,13.75
2022-10-03T08:14:00.480Z,13.54
2022-10-03T08:16:34.103Z,13.41
2022-10-03T08:19:19.616Z,13.77
2022-10-03T08:21:46.684Z,14.47
2022-10-03T08:24:36.873Z,14.65
2022-10-03T08:27:19.285Z,14.47
2022-10-03T08:29:46.200Z,15.00
2022-10-03T08:32:31.945Z,15.74
2022-10-03T08:34:58.798Z,17.03
2022-10-03T08:37:52.120Z,17.54
2022-10-03T08:40:38.189Z,18.43
2022-10-03T08:43:23.935Z,18.15
2022-10-03T08:45:51.955Z,16.96
2022-10-03T08:48:37.958Z,16.50
2022-10-03T08:51:34.439Z,15.63
2022-10-03T08:54:02.815Z,16.46
2022-10-03T08:56:41.751Z,17.84
2022-10-03T08:59:14.669Z,18.90
2022-10-03T09:01:41.858Z,18.84
2022-10-03T09:04:15.694Z,18.68
2022-10-03T09:07:18.095Z,18.49
2022-10-03T09:09:46.049Z,17.47
2022-10-03T09:12:19.225Z,16.24
2022-10-03T09:14:58.365Z,16.20
2022-10-03T09:17:25.214Z,15.85
2022-10-03T09:20:04.558Z,15.52
2022-10-03T09:22:50.222Z,14.74
2022-10-03T09:25:36.187Z,14.30
2022-10-03T09:28:25.485Z,13.99
2022-10-03T09:31:11.684Z,13.42
2022-10-03T09:33:50.945Z,13.44
2022-10-03T09:36:26.969Z,13.75
2022-10-03T09:38:56.914Z,13.74
2022-10-03T09:41:28.554Z,14.05
2022-10-03T09:44:04.726Z,13.85
2022-10-03T09:47:10.059Z,13.56
2022-10-03T09:49:45.758Z,13.04
2022-10-03T09:52:12.856Z,13.34
2022-10-03T09:54:59.858Z,13.51
2022-10-03T09:57:52.114Z,14.29
2022-10-03T10:00:26.128Z,14.93
2022-10-03T10:02:59.410Z,15.14
2022-10-03T10:05:50.811Z,14.95
2022-10-03T10:08:20.998Z,15.08
2022-10-03T10:10:53.249Z,15.16
2022-10-03T10:14:02.788Z,15.16
2022-10-03T10:16:39.619Z,15.17
2022-10-03T10:19:27.272Z,15.42
2022-10-03T10:21:57.006Z,15.77
2022-10-03T10:24:33.221Z,15.93
2022-10-03T10:27:09.369Z,16.48
2022-10-03T10:29:39.569Z,16.33
2022-10-03T10:32:32.424Z,16.10
2022-10-03T10:35:18.023Z,15.98
2022-10-03T10:37:47.805Z,16.00
2022-10-03T10:40:33.690Z,15.54
2022-10-03T10:43:15.724Z,15.67
2022-10-03T10:45:52.533Z,15.77
2022-10-03T10:48:39.632Z,15.96
2022-10-03T10:51:24.098Z,15.88
2022-10-03T10:54:09.734Z,15.75
2022-10-03T10:56:49.662Z,15.31
2022-10-03T10:59:28.705Z,15.24
2022-10-03T11:02:14.811Z,15.15
2022-10-03T11:05:00.920Z,15.20
2022-10-03T11:07:57.198Z,15.07
2022-10-03T11:10:26.814Z,14.84
2022-10-03T11:13:14.304Z,14.57
2022-10-03T11:16:00.497Z,14.82
2022-10-03T11:18:50.497Z,14.71
2022-10-03T11:21:33.378Z,14.89
2022-10-03T11:24:15.836Z,14.51
2022-10-03T11:26:42.953Z,14.26
2022-10-03T11:29:38.514Z,14.49
2022-10-03T11:32:24.813Z,14.76
2022-10-03T11:35:10.797Z,15.15
2022-10-03T11:37:46.585Z,15.05
2022-10-03T11:40:31.458Z,14.85
2022-10-03T11:43:27.181Z,14.51
2022-10-03T11:46:03.666Z,14.07
2022-10-03T11:48:34.448Z,14.02
2022-10-03T11:51:15.800Z,14.12
2022-10-03T11:54:26.660Z,14.26
2022-10-03T11:57:02.798Z,13.95
2022-10-03T11:59:29.645Z,13.84
2022-10-03T12:02:18.147Z,13.76
2022-10-03T12:04:51.518Z,13.79
2022-10-03T12:07:40.713Z,13.71
2022-10-03T12:10:17.091Z,13.76
2022-10-03T12:12:46.354Z,14.12
2022-10-03T12:15:34.491Z,14.30
2022-10-03T12:18:21.887Z,14.27
2022-10-03T12:21:08.029Z,14.57
2022-10-03T12:23:35.322Z,14.51
2022-10-03T12:26:03.620Z,14.19
2022-10-03T12:28:37.209Z,14.19
2022-10-03T12:31:25.014Z,14.21
2022-10-03T12:33:52.085Z,14.13
2022-10-03T12:36:25.803Z,14.20
2022-10-03T12:38:52.760Z,14.42
2022-10-03T12:41:24.324Z,14.50
2022-10-03T12:44:09.692Z,14.59
2022-10-03T12:46:36.773Z,14.68
2022-10-03T12:49:06.367Z,14.81
2022-10-03T12:51:33.430Z,14.92
2022-10-03T12:54:07.961Z,14.81
2022-10-03T12:57:10.817Z,14.85
2022-10-03T12:59:38.786Z,14.86
2022-10-03T13:02:08.688Z,14.76
2022-10-03T13:04:54.706Z,14.50
2022-10-03T13:07:28.021Z,14.47
2022-10-03T13:10:02.031Z,14.47
2022-10-03T13:12:31.882Z,14.50
2022-10-03T13:15:04.189Z,14.51
2022-10-03T13:17:40.682Z,14.33
2022-10-03T13:20:22.884Z,14.21
2022-10-03T13:22:50.008Z,13.87
2022-10-03T13:25:21.948Z,13.86
2022-10-03T13:27:52.077Z,13.67
2022-10-03T13:30:22.930Z,13.40
2022-10-03T13:32:50.257Z,13.24
2022-10-03T13:35:42.621Z,13.10
2022-10-03T13:38:28.526Z,13.30
2022-10-03T13:41:14.286Z,13.31
2022-10-03T13:43:47.300Z,13.18
2022-10-03T13:46:22.325Z,12.98
2022-10-03T13:49:12.073Z,13.00
2022-10-03T13:51:50.919Z,12.95
2022-10-03T13:54:24.928Z,12.96
2022-10-03T13:56:59.074Z,12.95
2022-10-03T13:59:27.924Z,13.00
2022-10-03T14:02:09.331Z,13.13
2022-10-03T14:04:47.959Z,13.22
2022-10-03T14:07:35.670Z,13.24
2022-10-03T14:10:03.949Z,13.21
2022-10-03T14:12:54.761Z,13.19
2022-10-03T14:15:27.213Z,13.24
2022-10-03T14:17:59.246Z,13.09
2022-10-03T14:20:37.499Z,12.88
2022-10-03T14:23:26.387Z,12.85
2022-10-03T14:26:06.342Z,12.51
2022-10-03T14:28:45.588Z,12.04
2022-10-03T14:31:43.471Z,12.07
2022-10-03T14:34:29.629Z,11.73
2022-10-03T14:37:26.571Z,11.83
2022-10-03T14:40:14.442Z,11.97
2022-10-03T14:42:44.685Z,12.10
2022-10-03T14:45:13.980Z,12.26
2022-10-03T14:47:43.834Z,12.25
2022-10-03T14:50:21.727Z,12.34
2022-10-03T14:53:03.072Z,12.22
2022-10-03T14:55:34.453Z,12.22
2022-10-03T14:58:12.015Z,12.23
2022-10-03T15:00:56.446Z,12.18
2022-10-03T15:03:27.995Z,12.24
2022-10-03T15:05:55.622Z,12.19
2022-10-03T15:08:32.452Z,12.31
2022-10-03T15:11:00.811Z,12.41
2022-10-03T15:15:56.780Z,12.34
2022-10-03T15:18:26.729Z,12.35
2022-10-03T15:20:57.829Z,12.20
2022-10-03T15:23:43.632Z,12.19
2022-10-03T15:26:18.964Z,12.13
2022-10-03T15:28:48.735Z,12.15
2022-10-03T15:31:35.877Z,12.16
2022-10-03T15:34:06.219Z,12.07
2022-10-03T15:36:38.250Z,12.03
2022-10-03T15:39:16.453Z,11.93
2022-10-03T15:42:02.013Z,11.75
2022-10-03T15:44:39.304Z,11.73
2022-10-03T15:47:14.067Z,11.79
2022-10-03T15:49:48.885Z,11.83
2022-10-03T15:52:21.723Z,11.81
2022-10-03T15:54:56.877Z,11.83
2022-10-03T15:57:37.133Z,11.80
2022-10-03T16:00:07.349Z,11.80
2022-10-03T16:02:35.760Z,11.74
2022-10-03T16:05:07.541Z,11.76
2022-10-03T16:07:42.928Z,11.66
2022-10-03T16:10:21.894Z,11.64
2022-10-03T16:12:50.842Z,11.61
2022-10-03T16:15:37.839Z,11.55
2022-10-03T16:18:09.555Z,11.53
2022-10-03T16:20:41.844Z,11.47
2022-10-03T16:23:10.067Z,11.51
2022-10-03T16:25:45.257Z,11.50
2022-10-03T16:28:14.360Z,11.51
2022-10-03T16:30:44.819Z,11.52
2022-10-03T16:33:15.025Z,11.46
2022-10-03T16:35:42.262Z,11.46
2022-10-03T16:38:18.942Z,11.35
2022-10-03T16:40:57.277Z,11.39
2022-10-03T16:43:26.752Z,11.38
2022-10-03T16:45:56.119Z,11.36
2022-10-03T16:48:44.107Z,11.38
2022-10-03T16:51:21.023Z,11.38
2022-10-03T16:53:50.774Z,11.38
2022-10-03T16:56:21.276Z,11.36
2022-10-03T16:58:52.603Z,11.33
2022-10-03T17:01:31.992Z,11.31
2022-10-03T17:04:12.741Z,11.28
2022-10-03T17:06:40.635Z,11.19
2022-10-03T17:09:21.897Z,11.15
2022-10-03T17:11:52.901Z,11.05
2022-10-03T17:14:20.941Z,11.01
2022-10-03T17:16:52.746Z,10.87
2022-10-03T17:19:31.925Z,11.00
2022-10-03T17:22:05.420Z,11.03
2022-10-03T17:24:32.889Z,11.10
2022-10-03T17:27:03.169Z,11.03
2022-10-03T17:29:30.077Z,11.09
2022-10-03T17:32:03.150Z,11.20
2022-10-03T17:34:30.435Z,11.19
2022-10-03T17:36:57.787Z,11.20
2022-10-03T17:39:38.157Z,11.20
2022-10-03T17:42:17.210Z,11.12
2022-10-03T17:45:07.217Z,11.03
2022-10-03T17:47:57.651Z,10.93
2022-10-03T17:50:24.910Z,10.84
2022-10-03T17:52:54.684Z,10.74
2022-10-03T17:55:26.510Z,10.70
2022-10-03T17:57:55.668Z,10.66
2022-10-03T18:00:25.323Z,10.59
2022-10-03T18:03:04.426Z,10.55
2022-10-03T18:05:55.778Z,10.43
2022-10-03T18:08:44.181Z,10.26
2022-10-03T18:11:21.938Z,10.19
2022-10-03T18:13:52.631Z,10.25
2022-10-03T18:16:23.250Z,10.18
2022-10-03T18:19:20.727Z,10.17
2022-10-03T18:21:50.865Z,10.10
2022-10-03T18:24:20.885Z,10.08
2022-10-03T18:26:58.025Z,10.07
2022-10-03T18:29:33.230Z,10.12
2022-10-03T18:32:03.639Z,9.95
2022-10-03T18:34:35.552Z,9.91
2022-10-03T18:37:16.916Z,9.88
2022-10-03T18:39:44.550Z,9.94
2022-10-03T18:42:14.557Z,9.94
2022-10-03T18:44:44.709Z,9.95
2022-10-03T18:47:12.291Z,9.88
2022-10-03T18:49:40.210Z,9.74
2022-10-03T18:52:33.150Z,9.78
2022-10-03T18:55:03.197Z,9.71
2022-10-03T18:57:36.385Z,9.73
2022-10-03T19:00:14.569Z,9.70
2022-10-03T19:02:41.361Z,9.60
2022-10-03T19:05:08.436Z,9.57
2022-10-03T19:07:43.250Z,9.61
2022-10-03T19:10:23.803Z,9.56
2022-10-03T19:12:55.226Z,9.58
2022-10-03T19:15:33.255Z,9.58
2022-10-03T19:18:00.134Z,9.50
2022-10-03T19:20:28.977Z,9.54
2022-10-03T19:23:05.151Z,9.61
2022-10-03T19:25:33.958Z,9.64
2022-10-03T19:28:05.508Z,9.62
2022-10-03T19:30:33.041Z,9.60
2022-10-03T19:33:06.344Z,9.53
2022-10-03T19:35:35.382Z,9.69
2022-10-03T19:38:17.793Z,9.73
2022-10-03T19:40:50.695Z,9.79
2022-10-03T19:43:31.091Z,9.78
2022-10-03T19:46:00.764Z,9.82
2022-10-03T19:48:29.723Z,9.84
2022-10-03T19:51:07.105Z,9.86
2022-10-03T19:53:35.341Z,9.93
2022-10-03T19:56:04.080Z,9.97
2022-10-03T19:58:31.362Z,10.01
2022-10-03T20:00:58.960Z,10.05
2022-10-03T20:03:28.662Z,10.02
2022-10-03T20:05:55.840Z,10.02
2022-10-03T20:08:28.846Z,10.07
2022-10-03T20:10:55.721Z,10.10
2022-10-03T20:13:23.765Z,10.07
2022-10-03T20:15:52.483Z,10.09
2022-10-03T20:18:27.395Z,10.04
2022-10-03T20:20:55.780Z,10.07
2022-10-03T20:23:24.933Z,9.97
2022-10-03T20:25:55.692Z,10.08
2022-10-03T20:28:43.551Z,10.15
2022-10-03T20:31:11.403Z,10.10
2022-10-03T20:33:38.806Z,10.19
2022-10-03T20:36:20.882Z,10.25
2022-10-03T20:38:48.146Z,10.22
2022-10-03T20:41:21.990Z,10.15
2022-10-03T20:44:09.567Z,10.22
2022-10-03T20:46:43.245Z,10.26
2022-10-03T20:49:14.114Z,10.18
2022-10-03T20:52:01.352Z,10.26
2022-10-03T20:54:48.021Z,10.30
2022-10-03T20:57:21.020Z,10.30
2022-10-03T20:59:51.776Z,10.37
2022-10-03T21:02:18.627Z,10.17
2022-10-03T21:05:03.305Z,10.17
2022-10-03T21:07:35.641Z,10.28
2022-10-03T21:10:02.503Z,10.27
2022-10-03T21:12:33.115Z,10.33
2022-10-03T21:15:30.105Z,10.24
2022-10-03T21:17:57.380Z,10.22
2022-10-03T21:20:28.346Z,10.27
2022-10-03T21:22:59.020Z,10.28
2022-10-03T21:25:31.606Z,10.21
2022-10-03T21:27:59.038Z,10.21
2022-10-03T21:30:49.113Z,10.22
2022-10-03T21:33:21.201Z,10.30
2022-10-03T21:35:50.964Z,10.36
2022-10-03T21:38:29.459Z,10.39
2022-10-03T21:40:56.637Z,10.32
2022-10-03T21:43:35.537Z,10.30
2022-10-03T21:46:16.481Z,10.35
2022-10-03T21:48:55.613Z,10.32
2022-10-03T21:51:31.606Z,10.28
2022-10-03T21:54:10.846Z,10.35
2022-10-03T21:56:50.125Z,10.32
2022-10-03T21:59:40.334Z,10.29
2022-10-03T22:02:07.447Z,10.33
2022-10-03T22:04:48.468Z,10.37
2022-10-03T22:07:17.027Z,10.34
2022-10-03T22:09:45.574Z,10.41
2022-10-03T22:12:12.716Z,10.44
2022-10-03T22:14:45.513Z,10.42
2022-10-03T22:17:21.622Z,10.43
2022-10-03T22:20:12.362Z,10.41
2022-10-03T22:22:49.989Z,10.38
2022-10-03T22:25:32.617Z,10.37
2022-10-03T22:27:59.512Z,10.40
2022-10-03T22:30:27.705Z,10.35
2022-10-03T22:33:13.402Z,10.31
2022-10-03T22:35:43.782Z,10.43
2022-10-03T22:38:10.754Z,10.43
2022-10-03T22:40:38.118Z,10.41
2022-10-03T22:43:06.402Z,10.56
2022-10-03T22:45:37.533Z,10.41
2022-10-03T22:48:10.105Z,10.50
2022-10-03T22:50:41.712Z,10.51
2022-10-03T22:53:10.949Z,10.61
2022-10-03T22:55:38.781Z,10.63
2022-10-03T22:58:08.102Z,10.54
2022-10-03T23:00:35.822Z,10.56
2022-10-03T23:03:05.140Z,10.58
2022-10-03T23:05:50.988Z,10.57
2022-10-03T23:08:18.012Z,10.57
2022-10-03T23:10:55.208Z,10.55
2022-10-03T23:13:42.420Z,10.47
2022-10-03T23:16:09.423Z,10.47
2022-10-03T23:18:39.548Z,10.55
2022-10-03T23:21:10.835Z,10.62
2022-10-03T23:23:56.205Z,10.65
2022-10-03T23:26:38.366Z,10.62
2022-10-03T23:29:12.921Z,10.64
2022-10-03T23:31:50.700Z,10.68
2022-10-03T23:34:50.336Z,10.71
2022-10-03T23:37:17.213Z,10.71
2022-10-03T23:39:44.655Z,10.67
2022-10-03T23:42:19.426Z,10.69
2022-10-03T23:44:49.231Z,10.66
2022-10-03T23:47:19.148Z,10.64
2022-10-03T23:49:47.312Z,10.63
2022-10-03T23:52:19.715Z,10.62
2022-10-03T23:54:48.221Z,10.59
2022-10-03T23:57:17.127Z,10.59
2022-10-03T23:59:44.469Z,10.58
